DLH156 LSGG-EDDF
Flight info
| Callsign | DLH156 |
|---|---|
| Flight time | N/A |
| Altitude | 30000 |
| Route | DIPIR V25 ARBOS DCT PENDU DCT GIVOR DCT GTQ/N0424F240 DCT ERADI/N0416F230 DCT IDARO DCT OBIGA/N0422F240 DCT RAMOB IMCOM1A |
| Aircraft | A320/M-SDE3FGHIRWY/LB1 |
Departure
| Time | 2026-02-18 13:30 |
|---|---|
| Airport | Geneva International Airport (LSGG) |
Arrival
| Time | N/A |
|---|---|
| Airport | Frankfurt Main Airport (EDDF) |
| Time | Latitude | Longitude | Altitude | Speed | Heading |
|---|---|---|---|---|---|
| 2026-02-18 12:51 | 46.22981 | 6.10493 | 1384 ft | 0 kts | 134° |
| 2026-02-18 13:19 | 46.22986 | 6.10485 | 1384 ft | 2 kts | 130° |
| 2026-02-18 13:19 | 46.22997 | 6.10468 | 1385 ft | 2 kts | 125° |
| 2026-02-18 13:19 | 46.23005 | 6.10449 | 1384 ft | 2 kts | 109° |
| 2026-02-18 13:19 | 46.23007 | 6.10426 | 1388 ft | 2 kts | 51° |
| 2026-02-18 13:20 | 46.23002 | 6.10417 | 1388 ft | 0 kts | 44° |
| 2026-02-18 13:22 | 46.23005 | 6.10421 | 1388 ft | 4 kts | 44° |
| 2026-02-18 13:22 | 46.23027 | 6.10453 | 1388 ft | 4 kts | 44° |
| 2026-02-18 13:23 | 46.23050 | 6.10485 | 1387 ft | 7 kts | 46° |
| 2026-02-18 13:23 | 46.23086 | 6.10540 | 1386 ft | 7 kts | 46° |
| 2026-02-18 13:23 | 46.23122 | 6.10593 | 1385 ft | 7 kts | 46° |
| 2026-02-18 13:23 | 46.23157 | 6.10646 | 1385 ft | 7 kts | 46° |
| 2026-02-18 13:24 | 46.23196 | 6.10645 | 1385 ft | 5 kts | 321° |
| 2026-02-18 13:24 | 46.23220 | 6.10613 | 1383 ft | 4 kts | 317° |
| 2026-02-18 13:24 | 46.23240 | 6.10585 | 1386 ft | 4 kts | 314° |
| 2026-02-18 13:24 | 46.23256 | 6.10561 | 1384 ft | 5 kts | 314° |
| 2026-02-18 13:25 | 46.23337 | 6.10554 | 1384 ft | 12 kts | 43° |
| 2026-02-18 13:25 | 46.23426 | 6.10670 | 1382 ft | 18 kts | 46° |
| 2026-02-18 13:25 | 46.23515 | 6.10798 | 1382 ft | 18 kts | 44° |
| 2026-02-18 13:26 | 46.23581 | 6.10897 | 1381 ft | 11 kts | 47° |
| 2026-02-18 13:26 | 46.23644 | 6.10989 | 1377 ft | 22 kts | 45° |
| 2026-02-18 13:26 | 46.23777 | 6.11184 | 1378 ft | 29 kts | 45° |
| 2026-02-18 13:26 | 46.23923 | 6.11398 | 1374 ft | 31 kts | 45° |
| 2026-02-18 13:27 | 46.24077 | 6.11624 | 1373 ft | 33 kts | 45° |
| 2026-02-18 13:27 | 46.24244 | 6.11869 | 1370 ft | 31 kts | 50° |
| 2026-02-18 13:27 | 46.24378 | 6.12042 | 1368 ft | 26 kts | 47° |
| 2026-02-18 13:27 | 46.24502 | 6.12246 | 1366 ft | 28 kts | 45° |
| 2026-02-18 13:28 | 46.24645 | 6.12462 | 1363 ft | 31 kts | 46° |
| 2026-02-18 13:28 | 46.24798 | 6.12662 | 1360 ft | 26 kts | 17° |
| 2026-02-18 13:28 | 46.24871 | 6.12697 | 1361 ft | 7 kts | 19° |
| 2026-02-18 13:28 | 46.24878 | 6.12700 | 1360 ft | 0 kts | 20° |
| 2026-02-18 13:29 | 46.24961 | 6.12727 | 1358 ft | 14 kts | 353° |
| 2026-02-18 13:29 | 46.24987 | 6.12626 | 1358 ft | 12 kts | 243° |
| 2026-02-18 13:29 | 46.24917 | 6.12526 | 1359 ft | 21 kts | 226° |
| 2026-02-18 13:30 | 46.24633 | 6.12107 | 1367 ft | 93 kts | 225° |
| 2026-02-18 13:30 | 46.24035 | 6.11228 | 1375 ft | 149 kts | 226° |
| 2026-02-18 13:30 | 46.23241 | 6.10030 | 1599 ft | 177 kts | 227° |
| 2026-02-18 13:30 | 46.22382 | 6.08738 | 2341 ft | 176 kts | 226° |
| 2026-02-18 13:31 | 46.21492 | 6.07434 | 2983 ft | 193 kts | 224° |
| 2026-02-18 13:31 | 46.20485 | 6.05972 | 3427 ft | 217 kts | 223° |
| 2026-02-18 13:31 | 46.19362 | 6.04347 | 3924 ft | 239 kts | 223° |
| 2026-02-18 13:31 | 46.18171 | 6.02622 | 4843 ft | 243 kts | 223° |
| 2026-02-18 13:32 | 46.16973 | 6.00884 | 5830 ft | 246 kts | 225° |
| 2026-02-18 13:32 | 46.15763 | 5.99122 | 6779 ft | 249 kts | 226° |
| 2026-02-18 13:32 | 46.14668 | 5.97184 | 7655 ft | 252 kts | 244° |
| 2026-02-18 13:32 | 46.14185 | 5.94749 | 8517 ft | 257 kts | 265° |
| 2026-02-18 13:33 | 46.15360 | 5.89897 | 8997 ft | 270 kts | 310° |
| 2026-02-18 13:33 | 46.16928 | 5.88367 | 9013 ft | 279 kts | 333° |
| 2026-02-18 13:33 | 46.18832 | 5.87644 | 9067 ft | 287 kts | 343° |
| 2026-02-18 13:34 | 46.20793 | 5.87000 | 9948 ft | 289 kts | 342° |
| 2026-02-18 13:34 | 46.22811 | 5.86332 | 10441 ft | 308 kts | 341° |
| 2026-02-18 13:34 | 46.24987 | 5.85621 | 10687 ft | 334 kts | 345° |
| 2026-02-18 13:34 | 46.27414 | 5.85618 | 10969 ft | 364 kts | 4° |
| 2026-02-18 13:35 | 46.29949 | 5.86201 | 11592 ft | 372 kts | 5° |
| 2026-02-18 13:35 | 46.32522 | 5.86815 | 12322 ft | 378 kts | 5° |
| 2026-02-18 13:35 | 46.35133 | 5.87448 | 13021 ft | 382 kts | 5° |
| 2026-02-18 13:35 | 46.37773 | 5.88088 | 13728 ft | 387 kts | 5° |
| 2026-02-18 13:36 | 46.40436 | 5.88727 | 14394 ft | 390 kts | 5° |
| 2026-02-18 13:36 | 46.43131 | 5.89371 | 15084 ft | 393 kts | 5° |
| 2026-02-18 13:36 | 46.45841 | 5.90014 | 15762 ft | 396 kts | 5° |
| 2026-02-18 13:36 | 46.48567 | 5.90657 | 16461 ft | 398 kts | 4° |
| 2026-02-18 13:37 | 46.54077 | 5.91960 | 17779 ft | 404 kts | 4° |
| 2026-02-18 13:37 | 46.56865 | 5.92626 | 18399 ft | 407 kts | 4° |
| 2026-02-18 13:37 | 46.59671 | 5.93297 | 18952 ft | 410 kts | 4° |
| 2026-02-18 13:38 | 46.62492 | 5.93974 | 19501 ft | 412 kts | 4° |
| 2026-02-18 13:38 | 46.65330 | 5.94657 | 20020 ft | 415 kts | 4° |
| 2026-02-18 13:38 | 46.68187 | 5.95347 | 20561 ft | 417 kts | 3° |
| 2026-02-18 13:38 | 46.71058 | 5.96037 | 21077 ft | 419 kts | 3° |
| 2026-02-18 13:39 | 46.73945 | 5.96727 | 21589 ft | 421 kts | 2° |
| 2026-02-18 13:39 | 46.76844 | 5.97421 | 22100 ft | 423 kts | 2° |
| 2026-02-18 13:39 | 46.78769 | 5.97885 | 22429 ft | 425 kts | 2° |
| 2026-02-18 13:39 | 46.81698 | 5.98588 | 22943 ft | 427 kts | 2° |
| 2026-02-18 13:40 | 46.84639 | 5.99295 | 23416 ft | 429 kts | 2° |
| 2026-02-18 13:40 | 46.87589 | 6.00007 | 23781 ft | 431 kts | 2° |
| 2026-02-18 13:40 | 46.90556 | 6.00724 | 24153 ft | 433 kts | 2° |
| 2026-02-18 13:40 | 46.93537 | 6.01448 | 24521 ft | 435 kts | 2° |
| 2026-02-18 13:41 | 46.99533 | 6.02653 | 25212 ft | 432 kts | 354° |
| 2026-02-18 13:41 | 47.02551 | 6.02717 | 25582 ft | 433 kts | 353° |
| 2026-02-18 13:41 | 47.05563 | 6.02767 | 25907 ft | 435 kts | 353° |
| 2026-02-18 13:42 | 47.08596 | 6.02817 | 26235 ft | 437 kts | 353° |
| 2026-02-18 13:42 | 47.11636 | 6.02866 | 26542 ft | 438 kts | 353° |
| 2026-02-18 13:42 | 47.14702 | 6.02914 | 26857 ft | 440 kts | 353° |
| 2026-02-18 13:42 | 47.17767 | 6.02963 | 27192 ft | 442 kts | 353° |
| 2026-02-18 13:43 | 47.20849 | 6.03013 | 27527 ft | 444 kts | 353° |
| 2026-02-18 13:43 | 47.23948 | 6.03067 | 27869 ft | 446 kts | 353° |
| 2026-02-18 13:43 | 47.27012 | 6.03122 | 28123 ft | 447 kts | 353° |
| 2026-02-18 13:43 | 47.28048 | 6.03142 | 28197 ft | 448 kts | 353° |